地図

経路データ

SID SEASON NUMBER BASIN SUBBASIN NAME ISO_TIME NATURE LAT LON WMO_WIND WMO_PRES WMO_AGENCY TRACK_TYPE DIST2LAND LANDFALL IFLAG USA_AGENCY USA_ATCF_ID USA_LAT USA_LON USA_RECORD USA_STATUS USA_WIND USA_PRES USA_SSHS USA_R34_NE USA_R34_SE USA_R34_SW USA_R34_NW USA_R50_NE USA_R50_SE USA_R50_SW USA_R50_NW USA_R64_NE USA_R64_SE USA_R64_SW USA_R64_NW USA_POCI USA_ROCI USA_RMW USA_EYE TOKYO_LAT TOKYO_LON TOKYO_GRADE TOKYO_WIND TOKYO_PRES TOKYO_R50_DIR TOKYO_R50_LONG TOKYO_R50_SHORT TOKYO_R30_DIR TOKYO_R30_LONG TOKYO_R30_SHORT TOKYO_LAND CMA_LAT CMA_LON CMA_CAT CMA_WIND CMA_PRES HKO_LAT HKO_LON HKO_CAT HKO_WIND HKO_PRES NEWDELHI_LAT NEWDELHI_LON NEWDELHI_GRADE NEWDELHI_WIND NEWDELHI_PRES NEWDELHI_CI NEWDELHI_DP NEWDELHI_POCI REUNION_LAT REUNION_LON REUNION_TYPE REUNION_WIND REUNION_PRES REUNION_TNUM REUNION_CI REUNION_RMW REUNION_R34_NE REUNION_R34_SE REUNION_R34_SW REUNION_R34_NW REUNION_R50_NE REUNION_R50_SE REUNION_R50_SW REUNION_R50_NW REUNION_R64_NE REUNION_R64_SE REUNION_R64_SW REUNION_R64_NW BOM_LAT BOM_LON BOM_TYPE BOM_WIND BOM_PRES BOM_TNUM BOM_CI BOM_RMW BOM_R34_NE BOM_R34_SE BOM_R34_SW BOM_R34_NW BOM_R50_NE BOM_R50_SE BOM_R50_SW BOM_R50_NW BOM_R64_NE BOM_R64_SE BOM_R64_SW BOM_R64_NW BOM_ROCI BOM_POCI BOM_EYE BOM_POS_METHOD BOM_PRES_METHOD NADI_LAT NADI_LON NADI_CAT NADI_WIND NADI_PRES WELLINGTON_LAT WELLINGTON_LON WELLINGTON_WIND WELLINGTON_PRES DS824_LAT DS824_LON DS824_STAGE DS824_WIND DS824_PRES TD9636_LAT TD9636_LON TD9636_STAGE TD9636_WIND TD9636_PRES TD9635_LAT TD9635_LON TD9635_WIND TD9635_PRES TD9635_ROCI NEUMANN_LAT NEUMANN_LON NEUMANN_CLASS NEUMANN_WIND NEUMANN_PRES MLC_LAT MLC_LON MLC_CLASS MLC_WIND MLC_PRES USA_GUST BOM_GUST BOM_GUST_PER REUNION_GUST REUNION_GUST_PER USA_SEAHGT USA_SEARAD_NE USA_SEARAD_SE USA_SEARAD_SW USA_SEARAD_NW STORM_SPEED STORM_DIR
1978307N10082 1978 119 NI BB NOT_NAMED 1978-11-03 00:00:00 TS 10.1000 81.8000 main 141 141 O________OO___ jtwc_io IO031978 10.1000 81.8000 -1 10.1000 81.8000 TC 10.1000 81.8000 1 11 338
1978307N10082 1978 119 NI BB NOT_NAMED 1978-11-03 03:00:00 TS 10.6114 81.5902 main 169 163 P________PP___ IO031978 10.6325 81.5927 -1 10.6325 81.5927 TC 10.5691 81.5851 1 11 338
1978307N10082 1978 119 NI BB NOT_NAMED 1978-11-03 06:00:00 TS 11.0702 81.3953 main 163 143 O________OP___ jtwc_io IO031978 11.1000 81.4000 XX 15 -5 11.1000 81.4000 TC 15 11.0105 81.3859 1 9 337
1978307N10082 1978 119 NI BB NOT_NAMED 1978-11-03 09:00:00 TS 11.4339 81.2295 main 143 132 P________PP___ IO031978 11.4525 81.2349 XX 17 -5 11.4525 81.2349 TC 17 11.3966 81.2186 1 7 335
1978307N10082 1978 119 NI BB NOT_NAMED 1978-11-03 12:00:00 TS 11.7000 81.1000 main 132 109 O________OO___ jtwc_io IO031978 11.7000 81.1000 XX 20 -5 11.7000 81.1000 TC 20 11.7000 81.1000 1 5 335
1978307N10082 1978 119 NI BB NOT_NAMED 1978-11-03 15:00:00 TS 11.8923 81.0111 main 109 94 P________PP___ IO031978 11.8875 81.0000 XX 20 -5 11.8875 81.0000 TC 20 11.9020 81.0334 1 4 331
1978307N10082 1978 119 NI BB NOT_NAMED 1978-11-03 18:00:00 TS 12.0064 80.9232 main 94 79 O________OP___ jtwc_io IO031978 12.0000 80.9000 XX 20 -5 12.0000 80.9000 TC 20 12.0191 80.9696 1 3 314
1978307N10082 1978 119 NI BB NOT_NAMED 1978-11-03 21:00:00 TS 12.0738 80.8220 main 79 62 P________PP___ IO031978 12.0723 80.8100 XX 20 -5 12.0723 80.8100 TC 20 12.0767 80.8460 1 3 286
1978307N10082 1978 119 NI BB NOT_NAMED 1978-11-04 00:00:00 TS 12.1000 80.6000 main 62 24 O________OO___ jtwc_io IO031978 12.1000 80.6000 XX 20 -5 12.1000 80.6000 TC 20 12.1000 80.6000 1 6 274
1978307N10082 1978 119 NI BB NOT_NAMED 1978-11-04 03:00:00 TS 12.1174 80.1748 main 24 0 P________PP___ IO031978 12.1075 80.1750 XX 20 -5 12.1075 80.1750 TC 20 12.1371 80.1746 1 10 271
1978307N10082 1978 119 NI BB NOT_NAMED 1978-11-04 06:00:00 TS 12.1151 79.6075 main 0 0 O________OP___ jtwc_io IO031978 12.1000 79.6000 XX 20 -5 12.1000 79.6000 TC 20 12.1452 79.6224 1 12 270
1978307N10082 1978 119 NI BB NOT_NAMED 1978-11-04 09:00:00 TS 12.1151 78.9864 main 0 0 P________PP___ IO031978 12.1074 78.9875 XX 20 -5 12.1074 78.9875 TC 20 12.1307 78.9839 1 13 269
1978307N10082 1978 119 NI BB NOT_NAMED 1978-11-04 12:00:00 TS 12.1000 78.3000 main 0 0 O________OO___ jtwc_io IO031978 12.1000 78.3000 XX 20 -5 12.1000 78.3000 TC 20 12.1000 78.3000 1 14 268
1978307N10082 1978 119 NI AS NOT_NAMED 1978-11-04 15:00:00 TS 12.0573 77.5623 main 0 0 P________PP___ IO031978 12.0575 77.5500 XX 20 -5 12.0575 77.5500 TC 20 12.0569 77.5870 1 15 266
1978307N10082 1978 119 NI AS NOT_NAMED 1978-11-04 18:00:00 TS 12.0003 76.8157 main 0 0 O________OP___ jtwc_io IO031978 12.0000 76.8000 XX 20 -5 12.0000 76.8000 TC 20 12.0010 76.8472 1 14 265
1978307N10082 1978 119 NI AS NOT_NAMED 1978-11-04 21:00:00 TS 11.9431 76.1096 main 0 0 P________PP___ IO031978 11.9425 76.0975 XX 20 -5 11.9425 76.0975 TC 20 11.9444 76.1338 1 13 266
1978307N10082 1978 119 NI AS NOT_NAMED 1978-11-05 00:00:00 TS 11.9000 75.5000 main 0 0 O________OO___ jtwc_io IO031978 11.9000 75.5000 XX 20 -5 11.9000 75.5000 TC 20 11.9000 75.5000 1 10 267
1978307N10082 1978 119 NI AS NOT_NAMED 1978-11-05 03:00:00 TS 11.8870 75.0477 main 24 24 P________PP___ IO031978 11.8922 75.0626 XX 20 -5 11.8922 75.0626 TC 20 11.8765 75.0180 1 8 269
1978307N10082 1978 119 NI AS NOT_NAMED 1978-11-05 06:00:00 TS 11.8896 74.6726 main 54 54 O________OP___ jtwc_io IO031978 11.9000 74.7000 XX 20 -5 11.9000 74.7000 TC 20 11.8688 74.6177 1 7 270
1978307N10082 1978 119 NI AS NOT_NAMED 1978-11-05 09:00:00 TS 11.8872 74.2862 main 93 93 P________PP___ IO031978 11.8924 74.3000 XX 22 -5 11.8924 74.3000 TC 22 11.8767 74.2585 1 8 271
1978307N10082 1978 119 NI AS NOT_NAMED 1978-11-05 12:00:00 TS 11.9000 73.9000 main 132 132 O________OO___ jtwc_io IO031978 11.9000 73.9000 XX 25 -5 11.9000 73.9000 TC 25 11.9000 73.9000 1 8 274
1978307N10082 1978 119 NI AS NOT_NAMED 1978-11-05 15:00:00 TS 11.9347 73.5004 main 171 171 P________PP___ IO031978 11.9424 73.5075 XX 27 -5 11.9424 73.5075 TC 27 11.9192 73.4861 1 8 276
1978307N10082 1978 119 NI AS NOT_NAMED 1978-11-05 18:00:00 TS 11.9849 73.0882 main 205 205 O________OP___ jtwc_io IO031978 12.0000 73.1000 XX 30 -5 12.0000 73.1000 TC 30 11.9547 73.0648 1 8 277
1978307N10082 1978 119 NI AS NOT_NAMED 1978-11-05 21:00:00 TS 12.0326 72.6503 main 245 245 P________PP___ IO031978 12.0425 72.6574 XX 30 -5 12.0425 72.6574 TC 30 12.0129 72.6360 1 9 278
1978307N10082 1978 119 NI AS NOT_NAMED 1978-11-06 00:00:00 TS 12.1000 72.2000 main 293 293 O________OO___ jtwc_io IO031978 12.1000 72.2000 XX 30 -5 12.1000 72.2000 TC 30 12.1000 72.2000 2 9 280
1978307N10082 1978 119 NI AS NOT_NAMED 1978-11-06 03:00:00 TS 12.1879 71.7564 main 332 332 P________PP___ IO031978 12.1774 71.7499 XX 32 -5 12.1774 71.7499 TC 32 12.2088 71.7692 2 9 284
1978307N10082 1978 119 NI AS NOT_NAMED 1978-11-06 06:00:00 TS 12.3157 71.3099 main 384 384 O________OP___ jtwc_io IO031978 12.3000 71.3000 XX 35 -5 12.3000 71.3000 TC 35 12.3471 71.3297 2 9 289
1978307N10082 1978 119 NI AS NOT_NAMED 1978-11-06 09:00:00 TS 12.4889 70.8634 main 421 421 P________PP___ IO031978 12.4774 70.8574 XX 35 -5 12.4774 70.8574 TC 35 12.5118 70.8753 2 10 293
1978307N10082 1978 119 NI AS NOT_NAMED 1978-11-06 12:00:00 TS 12.7000 70.4000 main 463 463 O________OO___ jtwc_io IO031978 12.7000 70.4000 XX 35 -5 12.7000 70.4000 TC 35 12.7000 70.4000 2 10 296
1978307N10082 1978 119 NI AS NOT_NAMED 1978-11-06 15:00:00 TS 12.9358 69.9075 main 497 491 P________PP___ IO031978 12.9499 69.9150 XX 37 -5 12.9499 69.9150 TC 37 12.9074 69.8926 2 11 296
1978307N10082 1978 119 NI AS NOT_NAMED 1978-11-06 18:00:00 TS 13.1783 69.3884 main 529 529 O________OP___ jtwc_io IO031978 13.2000 69.4000 XX 40 -5 13.2000 69.4000 TC 40 13.1349 69.3651 2 11 294
1978307N10082 1978 119 NI AS NOT_NAMED 1978-11-06 21:00:00 TS 13.3950 68.8433 main 581 581 P________PP___ IO031978 13.4075 68.8499 XX 42 -5 13.4075 68.8499 TC 42 13.3699 68.8300 2 11 292
1978307N10082 1978 119 NI AS NOT_NAMED 1978-11-07 00:00:00 TS 13.6000 68.3000 main 622 622 O________OO___ jtwc_io IO031978 13.6000 68.3000 XX 45 -5 13.6000 68.3000 TC 45 13.6000 68.3000 4 11 292
1978307N10082 1978 119 NI AS NOT_NAMED 1978-11-07 03:00:00 TS 13.8009 67.7843 main 663 663 P________PP___ IO031978 13.7999 67.7924 XX 47 -5 13.7999 67.7924 TC 47 13.8031 67.7682 4 11 292
1978307N10082 1978 119 NI AS NOT_NAMED 1978-11-07 06:00:00 TS 14.0000 67.2824 main 702 702 O________OP___ jtwc_io IO031978 14.0000 67.3000 XX 50 -5 14.0000 67.3000 TC 50 14.0000 67.2472 4 11 292
1978307N10082 1978 119 NI AS NOT_NAMED 1978-11-07 09:00:00 TS 14.1990 66.7692 main 743 743 P________PP___ IO031978 14.2000 66.7775 XX 52 -5 14.2000 66.7775 TC 52 14.1969 66.7526 4 10 293
1978307N10082 1978 119 NI AS NOT_NAMED 1978-11-07 12:00:00 TS 14.4000 66.3000 main 786 786 O________OO___ jtwc_io IO031978 14.4000 66.3000 XX 55 -5 14.4000 66.3000 TC 55 14.4000 66.3000 4 9 295
1978307N10082 1978 119 NI AS NOT_NAMED 1978-11-07 15:00:00 TS 14.5857 65.9296 main 820 820 P________PP___ IO031978 14.5923 65.9273 XX 57 -5 14.5923 65.9273 TC 57 14.5723 65.9340 4 8 300
1978307N10082 1978 119 NI AS NOT_NAMED 1978-11-07 18:00:00 TS 14.7863 65.6018 main 846 846 O________OP___ jtwc_io IO031978 14.8000 65.6000 XX 60 -5 14.8000 65.6000 TC 60 14.7588 65.6055 4 8 304
1978307N10082 1978 119 NI AS NOT_NAMED 1978-11-07 21:00:00 TS 15.0052 65.2778 main 856 851 P________PP___ IO031978 15.0123 65.2796 XX 65 -5 15.0123 65.2796 TC 65 14.9910 65.2743 4 9 307
1978307N10082 1978 119 NI AS NOT_NAMED 1978-11-08 00:00:00 TS 15.3000 64.9000 main 856 791 O________OO___ jtwc_io IO031978 15.3000 64.9000 XX 70 -5 15.3000 64.9000 TC 70 15.3000 64.9000 4 11 309
1978307N10082 1978 119 NI AS NOT_NAMED 1978-11-08 03:00:00 TS 15.7229 64.3692 main 791 708 P________PP___ IO031978 15.7051 64.3725 XX 72 -5 15.7051 64.3725 TC 72 15.7585 64.3625 4 14 311
1978307N10082 1978 119 NI AS NOT_NAMED 1978-11-08 06:00:00 TS 16.2288 63.7952 main 708 631 O________OP___ jtwc_io IO031978 16.2000 63.8000 XX 75 -5 16.2000 63.8000 TC 75 16.2865 63.7857 4 15 315
1978307N10082 1978 119 NI AS NOT_NAMED 1978-11-08 09:00:00 TS 16.7937 63.2455 main 622 561 P________PP___ IO031978 16.7801 63.2479 XX 75 -5 16.7801 63.2479 TC 75 16.8211 63.2406 4 14 318
1978307N10082 1978 119 NI AS NOT_NAMED 1978-11-08 12:00:00 TS 17.3000 62.8000 main 561 520 O________OO___ jtwc_io IO031978 17.3000 62.8000 XX 75 -5 17.3000 62.8000 TC 75 17.3000 62.8000 4 11 320
1978307N10082 1978 119 NI AS NOT_NAMED 1978-11-08 15:00:00 TS 17.5963 62.5341 main 520 502 P________PP___ IO031978 17.5873 62.5321 XX 77 -5 17.5873 62.5321 TC 77 17.6144 62.5382 4 7 324
1978307N10082 1978 119 NI AS NOT_NAMED 1978-11-08 18:00:00 TS 17.8238 62.3970 main 502 474 O________OP___ jtwc_io IO031978 17.8000 62.4000 XX 80 -5 17.8000 62.4000 TC 80 17.8715 62.3909 4 5 338
1978307N10082 1978 119 NI AS NOT_NAMED 1978-11-08 21:00:00 TS 18.0859 62.3260 main 474 456 P________PP___ IO031978 18.0700 62.3274 XX 80 -5 18.0700 62.3274 TC 80 18.1179 62.3231 4 6 351
1978307N10082 1978 119 NI AS NOT_NAMED 1978-11-09 00:00:00 TS 18.4000 62.3000 main 456 419 O________OO___ jtwc_io IO031978 18.4000 62.3000 XX 80 -5 18.4000 62.3000 TC 80 18.4000 62.3000 4 7 353
1978307N10082 1978 119 NI AS NOT_NAMED 1978-11-09 03:00:00 TS 18.8213 62.2340 main 419 382 P________PP___ IO031978 18.8350 62.2351 XX 80 -5 18.8350 62.2351 TC 80 18.7939 62.2318 4 9 354
1978307N10082 1978 119 NI AS NOT_NAMED 1978-11-09 06:00:00 TS 19.2758 62.2010 main 382 356 O________OP___ jtwc_io IO031978 19.3000 62.2000 XX 80 -5 19.3000 62.2000 TC 80 19.2273 62.2030 4 9 360
1978307N10082 1978 119 NI AS NOT_NAMED 1978-11-09 09:00:00 TS 19.7007 62.2209 main 356 344 P________PP___ IO031978 19.7150 62.2200 XX 77 -5 19.7150 62.2200 TC 77 19.6720 62.2226 4 8 7
1978307N10082 1978 119 NI AS NOT_NAMED 1978-11-09 12:00:00 TS 20.1000 62.3000 main 344 332 O________OO___ jtwc_io IO031978 20.1000 62.3000 XX 75 -5 20.1000 62.3000 TC 75 20.1000 62.3000 4 8 14
1978307N10082 1978 119 NI AS NOT_NAMED 1978-11-09 15:00:00 TS 20.4648 62.4194 main 329 325 P________PP___ IO031978 20.4575 62.4201 XX 75 -5 20.4575 62.4201 TC 75 20.4795 62.4181 4 8 21
1978307N10082 1978 119 NI AS NOT_NAMED 1978-11-09 18:00:00 TS 20.8124 62.5984 main 329 323 O________OP___ jtwc_io IO031978 20.8000 62.6000 XX 75 -5 20.8000 62.6000 TC 75 20.8372 62.5951 4 8 29
1978307N10082 1978 119 NI AS NOT_NAMED 1978-11-09 21:00:00 TS 21.1638 62.8265 main 329 329 P________PP___ IO031978 21.1575 62.8275 XX 70 -5 21.1575 62.8275 TC 70 21.1763 62.8246 4 8 34
1978307N10082 1978 119 NI AS NOT_NAMED 1978-11-10 00:00:00 TS 21.5000 63.1000 main 349 346 O________OO___ jtwc_io IO031978 21.5000 63.1000 XX 65 -5 21.5000 63.1000 TC 65 21.5000 63.1000 4 8 38
1978307N10082 1978 119 NI AS NOT_NAMED 1978-11-10 03:00:00 TS 21.8192 63.3819 main 373 346 P________PP___ IO031978 21.8074 63.3777 XX 62 -5 21.8074 63.3777 TC 62 21.8427 63.3904 4 8 42
1978307N10082 1978 119 NI AS NOT_NAMED 1978-11-10 06:00:00 TS 22.1224 63.7082 main 347 314 O________OP___ jtwc_io IO031978 22.1000 63.7000 XX 60 -5 22.1000 63.7000 TC 60 22.1672 63.7246 4 9 47
1978307N10082 1978 119 NI AS NOT_NAMED 1978-11-10 09:00:00 TS 22.4294 64.0839 main 314 279 P________PP___ IO031978 22.4149 64.0775 XX 57 -5 22.4149 64.0775 TC 57 22.4582 64.0966 4 9 52
1978307N10082 1978 119 NI AS NOT_NAMED 1978-11-10 12:00:00 TS 22.7000 64.5000 main 279 257 O________OO___ jtwc_io IO031978 22.7000 64.5000 XX 55 -5 22.7000 64.5000 TC 55 22.7000 64.5000 4 9 58
1978307N10082 1978 119 NI AS NOT_NAMED 1978-11-10 15:00:00 TS 22.9250 64.9436 main 257 227 P________PP___ IO031978 22.9374 64.9425 XX 52 -5 22.9374 64.9425 TC 52 22.9001 64.9457 4 9 65
1978307N10082 1978 119 NI AS NOT_NAMED 1978-11-10 18:00:00 TS 23.0827 65.4050 main 227 185 O________OP___ jtwc_io IO031978 23.1000 65.4000 XX 50 -5 23.1000 65.4000 TC 50 23.0481 65.4151 4 9 74
1978307N10082 1978 119 NI AS NOT_NAMED 1978-11-10 21:00:00 TS 23.1690 65.8691 main 177 143 P________PP___ IO031978 23.1800 65.8652 XX 47 -5 23.1800 65.8652 TC 47 23.1470 65.8769 4 8 82
1978307N10082 1978 119 NI AS NOT_NAMED 1978-11-11 00:00:00 TS 23.2000 66.3000 main 143 112 O________OO___ jtwc_io IO031978 23.2000 66.3000 XX 45 -5 23.2000 66.3000 TC 45 23.2000 66.3000 4 7 86
1978307N10082 1978 119 NI AS NOT_NAMED 1978-11-11 03:00:00 TS 23.2158 66.6733 main 112 90 P________PP___ IO031978 23.2149 66.6800 XX 42 -5 23.2149 66.6800 TC 42 23.2176 66.6600 4 6 90
1978307N10082 1978 119 NI AS NOT_NAMED 1978-11-11 06:00:00 TS 23.1982 66.9919 main 90 73 O________OP___ jtwc_io IO031978 23.2000 67.0000 XX 40 -5 23.2000 67.0000 TC 40 23.1945 66.9757 4 5 97
1978307N10082 1978 119 NI AS NOT_NAMED 1978-11-11 09:00:00 TS 23.1496 67.2662 main 84 78 P________PP___ IO031978 23.1499 67.2726 XX 37 -5 23.1499 67.2726 TC 37 23.1491 67.2536 4 5 102
1978307N10082 1978 119 NI AS NOT_NAMED 1978-11-11 12:00:00 TS 23.1000 67.5000 main 78 75 O________OO___ jtwc_io IO031978 23.1000 67.5000 XX 35 -5 23.1000 67.5000 TC 35 23.1000 67.5000 4 4 98
1978307N10082 1978 119 NI AS NOT_NAMED 1978-11-11 15:00:00 TS 23.0941 67.7036 main 75 63 P________PP___ IO031978 23.0999 67.7074 XX 27 -5 23.0999 67.7074 TC 27 23.0825 67.6960 4 4 92
1978307N10082 1978 119 NI AS NOT_NAMED 1978-11-11 18:00:00 TS 23.0880 67.8899 main 63 52 O________OP___ jtwc_io IO031978 23.1000 67.9000 XX 20 -5 23.1000 67.9000 TC 20 23.0640 67.8697 4 3 97
1978307N10082 1978 119 NI AS NOT_NAMED 1978-11-11 21:00:00 TS 23.0511 68.0662 main 52 37 P________PP___ IO031978 23.0573 68.0700 XX -5 23.0573 68.0700 TC 23.0386 68.0585 4 4 103
1978307N10082 1978 119 NI AS NOT_NAMED 1978-11-12 00:00:00 TS 23.0000 68.3000 main 37 15 O________OO___ jtwc_io IO031978 23.0000 68.3000 -1 23.0000 68.3000 TC 23.0000 68.3000 2 6 100
1978307N10082 1978 119 NI AS NOT_NAMED 1978-11-12 03:00:00 TS 22.9517 68.6663 main 11 0 P________PP___ IO031978 22.9576 68.6699 -1 22.9576 68.6699 TC 22.9399 68.6590 2 7 99
1978307N10082 1978 119 NI AS NOT_NAMED 1978-11-12 06:00:00 TS 22.8886 69.0901 main 0 0 O________OP___ jtwc_io IO031978 22.9000 69.1000 -1 22.9000 69.1000 TC 22.8658 69.0703 2 8 101
1978307N10082 1978 119 NI AS NOT_NAMED 1978-11-12 09:00:00 TS 22.7945 69.5089 main 0 0 P________PP___ IO031978 22.8000 69.5151 -1 22.8000 69.5151 TC 22.7836 69.4965 2 8 104
1978307N10082 1978 119 NI AS NOT_NAMED 1978-11-12 12:00:00 TS 22.7000 69.9000 main 15 10 O________OO___ jtwc_io IO031978 22.7000 69.9000 -1 22.7000 69.9000 TC 22.7000 69.9000 1 7 103
1978307N10082 1978 119 NI AS NOT_NAMED 1978-11-12 15:00:00 TS 22.6400 70.2274 main 10 0 P________PP___ IO031978 22.6499 70.2149 -1 22.6499 70.2149 TC 22.6203 70.2524 1 6 102
1978307N10082 1978 119 NI AS NOT_NAMED 1978-11-12 18:00:00 TS 22.5816 70.5200 main 0 0 O________OP___ jtwc_io IO031978 22.6000 70.5000 -1 22.6000 70.5000 TC 22.5447 70.5599 1 6 105
1978307N10082 1978 119 NI AS NOT_NAMED 1978-11-12 21:00:00 TS 22.4990 70.8093 main 0 0 P________PP___ IO031978 22.5127 70.7952 -1 22.5127 70.7952 TC 22.4718 70.8375 1 6 109
1978307N10082 1978 119 NI AS NOT_NAMED 1978-11-13 00:00:00 TS 22.4000 71.1000 main 0 O________OO___ jtwc_io IO031978 22.4000 71.1000 -1 22.4000 71.1000 TC 22.4000 71.1000 1 6 110

IBTrACS Databaseについて

本データベースは、米国NOAAが公開する1842年以降の世界の熱帯低気圧のベストトラックデータアーカイブInternational Best Track Archive for Climate Stewardship (IBTrACS)を、ウェブで閲覧しやすい形式に変換したものです。

最終更新日:2021-12-03